createdAt,value
2023-08-22T00:00:34.585Z,22.50
2023-08-22T00:03:01.944Z,22.40
2023-08-22T00:05:29.223Z,22.40
2023-08-22T00:07:56.278Z,22.30
2023-08-22T00:10:23.645Z,22.20
2023-08-22T00:12:50.626Z,22.10
2023-08-22T00:15:17.835Z,22.00
2023-08-22T00:17:46.251Z,21.90
2023-08-22T00:20:14.348Z,21.90
2023-08-22T00:22:42.140Z,21.80
2023-08-22T00:25:10.855Z,21.80
2023-08-22T00:27:39.136Z,21.80
2023-08-22T00:30:07.308Z,21.80
2023-08-22T00:32:36.094Z,21.70
2023-08-22T00:35:03.485Z,21.70
2023-08-22T00:37:30.622Z,21.60
2023-08-22T00:39:57.614Z,21.50
2023-08-22T00:42:24.713Z,21.50
2023-08-22T00:44:54.869Z,21.50
2023-08-22T00:47:23.732Z,21.50
2023-08-22T00:49:51.770Z,21.40
2023-08-22T00:52:18.985Z,21.40
2023-08-22T00:54:47.810Z,21.40
2023-08-22T00:57:15.956Z,21.30
2023-08-22T00:59:43.939Z,21.30
2023-08-22T01:02:11.304Z,21.30
2023-08-22T01:04:38.380Z,21.30
2023-08-22T01:07:23.844Z,21.30
2023-08-22T01:10:29.828Z,21.20
2023-08-22T01:13:14.804Z,21.20
2023-08-22T01:15:42.897Z,21.10
2023-08-22T01:18:12.694Z,21.10
2023-08-22T01:20:39.786Z,21.00
2023-08-22T01:23:06.979Z,21.00
2023-08-22T01:25:34.969Z,21.00
2023-08-22T01:28:45.796Z,20.90
2023-08-22T01:31:45.565Z,20.90
2023-08-22T01:34:21.962Z,20.90
2023-08-22T01:36:53.364Z,20.90
2023-08-22T01:39:21.101Z,20.80
2023-08-22T01:41:49.626Z,20.80
2023-08-22T01:44:16.681Z,20.80
2023-08-22T01:46:43.826Z,20.80
2023-08-22T01:49:11.205Z,20.70
2023-08-22T01:51:38.592Z,20.70
2023-08-22T01:54:05.956Z,20.80
2023-08-22T01:56:33.981Z,20.80
2023-08-22T01:59:00.946Z,20.80
2023-08-22T02:01:28.019Z,20.80
2023-08-22T02:03:55.017Z,20.80
2023-08-22T02:06:22.404Z,20.80
2023-08-22T02:08:49.425Z,20.80
2023-08-22T02:11:17.669Z,20.90
2023-08-22T02:13:44.716Z,20.90
2023-08-22T02:16:11.797Z,20.90
2023-08-22T02:18:39.779Z,20.90
2023-08-22T02:21:08.277Z,20.90
2023-08-22T02:23:35.491Z,20.90
2023-08-22T02:26:02.552Z,20.90
2023-08-22T02:28:29.568Z,21.00
2023-08-22T02:30:58.420Z,21.00
2023-08-22T02:33:25.598Z,21.10
2023-08-22T02:35:55.006Z,21.10
2023-08-22T02:38:23.241Z,21.20
2023-08-22T02:40:50.448Z,21.20
2023-08-22T02:43:17.762Z,21.10
2023-08-22T02:45:47.971Z,21.10
2023-08-22T02:48:15.260Z,21.00
2023-08-22T02:50:42.315Z,21.00
2023-08-22T02:53:11.620Z,21.00
2023-08-22T02:55:38.701Z,20.90
2023-08-22T02:58:06.443Z,20.90
2023-08-22T03:00:35.624Z,20.80
2023-08-22T03:03:04.606Z,20.80
2023-08-22T03:05:33.157Z,20.80
2023-08-22T03:08:00.217Z,20.70
2023-08-22T03:10:27.199Z,20.60
2023-08-22T03:12:54.208Z,20.60
2023-08-22T03:15:21.295Z,20.50
2023-08-22T03:17:48.616Z,20.40
2023-08-22T03:20:15.765Z,20.30
2023-08-22T03:22:42.922Z,20.20
2023-08-22T03:25:10.037Z,20.20
2023-08-22T03:27:37.600Z,20.20
2023-08-22T03:30:05.926Z,20.20
2023-08-22T03:32:33.040Z,20.20
2023-08-22T03:35:00.176Z,20.20
2023-08-22T03:37:27.529Z,20.10
2023-08-22T03:39:54.502Z,20.10
2023-08-22T03:42:21.515Z,20.10
2023-08-22T03:44:49.133Z,20.10
2023-08-22T03:47:17.412Z,20.10
2023-08-22T03:49:44.441Z,20.10
2023-08-22T03:52:11.697Z,20.00
2023-08-22T03:54:39.037Z,20.00
2023-08-22T03:57:06.307Z,20.00
2023-08-22T03:59:33.720Z,20.00
2023-08-22T04:02:00.793Z,19.90
2023-08-22T04:04:27.832Z,19.90
2023-08-22T04:06:55.224Z,19.90
2023-08-22T04:09:22.385Z,19.80
2023-08-22T04:11:49.380Z,19.80
2023-08-22T04:14:16.605Z,19.80
2023-08-22T04:16:43.688Z,19.80
2023-08-22T04:19:10.674Z,19.90
2023-08-22T04:21:37.648Z,19.90
2023-08-22T04:24:04.734Z,19.90
2023-08-22T04:26:32.178Z,19.90
2023-08-22T04:28:59.730Z,19.90
2023-08-22T04:31:26.790Z,19.80
2023-08-22T04:33:53.885Z,19.80
2023-08-22T04:36:21.176Z,19.80
2023-08-22T04:38:50.753Z,19.70
2023-08-22T04:41:17.855Z,19.70
2023-08-22T04:43:44.893Z,19.70
2023-08-22T04:46:16.671Z,19.80
2023-08-22T04:48:45.800Z,19.80
2023-08-22T04:51:12.804Z,19.80
2023-08-22T04:53:39.977Z,19.80
2023-08-22T04:56:06.990Z,19.90
2023-08-22T04:58:33.995Z,19.90
2023-08-22T05:01:01.034Z,20.00
2023-08-22T05:03:28.090Z,20.10
2023-08-22T05:05:55.243Z,20.10
2023-08-22T05:08:22.381Z,20.20
2023-08-22T05:10:49.393Z,20.20
2023-08-22T05:13:16.373Z,20.30
2023-08-22T05:15:44.864Z,20.40
2023-08-22T05:18:12.067Z,20.50
2023-08-22T05:20:42.624Z,20.60
2023-08-22T05:23:09.659Z,20.80
2023-08-22T05:25:36.766Z,20.80
2023-08-22T05:28:03.950Z,20.90
2023-08-22T05:30:31.333Z,21.10
2023-08-22T05:32:58.488Z,21.10
2023-08-22T05:35:25.547Z,21.30
2023-08-22T05:37:52.572Z,21.40
2023-08-22T05:40:19.854Z,21.50
2023-08-22T05:42:46.962Z,21.60
2023-08-22T05:45:14.107Z,21.80
2023-08-22T05:47:41.502Z,21.90
2023-08-22T05:50:09.217Z,22.10
2023-08-22T05:52:36.752Z,22.20
2023-08-22T05:55:04.464Z,22.40
2023-08-22T05:57:31.477Z,22.70
2023-08-22T05:59:58.552Z,23.40
2023-08-22T06:02:25.680Z,24.40
2023-08-22T06:04:53.234Z,25.60
2023-08-22T06:07:20.294Z,26.70
2023-08-22T06:09:47.398Z,27.60
2023-08-22T06:12:14.407Z,28.60
2023-08-22T06:14:41.455Z,29.70
2023-08-22T06:17:09.792Z,30.70
2023-08-22T06:19:36.890Z,31.50
2023-08-22T06:22:03.890Z,32.20
2023-08-22T06:24:30.916Z,32.50
2023-08-22T06:26:57.872Z,32.90
2023-08-22T06:29:25.015Z,33.40
2023-08-22T06:31:52.022Z,33.90
2023-08-22T06:34:19.252Z,34.30
2023-08-22T06:36:46.247Z,34.80
2023-08-22T06:39:13.206Z,35.40
2023-08-22T06:41:40.237Z,35.90
2023-08-22T06:44:10.287Z,36.40
2023-08-22T06:46:37.721Z,36.70
2023-08-22T06:49:04.816Z,37.10
2023-08-22T06:51:33.177Z,37.40
2023-08-22T06:54:00.284Z,37.60
2023-08-22T06:56:27.725Z,37.80
2023-08-22T06:58:54.801Z,38.10
2023-08-22T07:01:21.995Z,38.20
2023-08-22T07:03:58.784Z,38.20
2023-08-22T07:06:29.567Z,38.30
2023-08-22T07:08:56.602Z,38.20
2023-08-22T07:11:23.731Z,37.90
2023-08-22T07:13:52.145Z,38.10
2023-08-22T07:16:19.365Z,38.40
2023-08-22T07:18:46.537Z,38.40
2023-08-22T07:21:13.566Z,38.20
2023-08-22T07:23:40.506Z,37.90
2023-08-22T07:26:08.265Z,37.70
2023-08-22T07:28:35.323Z,37.60
2023-08-22T07:31:05.326Z,37.50
2023-08-22T07:33:32.555Z,37.20
2023-08-22T07:36:00.342Z,37.10
2023-08-22T07:38:28.102Z,37.50
2023-08-22T07:40:55.155Z,37.80
2023-08-22T07:43:22.194Z,38.10
2023-08-22T07:45:49.287Z,37.70
2023-08-22T07:48:17.057Z,37.90
2023-08-22T07:50:44.059Z,38.10
2023-08-22T07:53:11.039Z,38.50
2023-08-22T07:55:38.147Z,38.60
2023-08-22T07:58:05.444Z,38.70
2023-08-22T08:00:32.513Z,38.10
2023-08-22T08:02:59.774Z,38.00
2023-08-22T08:05:27.522Z,38.00
2023-08-22T08:07:54.614Z,38.00
2023-08-22T08:10:22.002Z,38.40
2023-08-22T08:12:48.951Z,38.60
2023-08-22T08:15:15.965Z,38.70
2023-08-22T08:17:43.232Z,38.60
2023-08-22T08:20:12.252Z,38.60
2023-08-22T08:22:39.216Z,38.70
2023-08-22T08:25:07.000Z,38.70
2023-08-22T08:27:34.455Z,38.70
2023-08-22T08:30:01.454Z,38.90
2023-08-22T08:32:28.532Z,39.10
2023-08-22T08:34:55.607Z,39.30
2023-08-22T08:37:22.603Z,39.20
2023-08-22T08:39:49.647Z,39.20
2023-08-22T08:42:17.926Z,39.10
2023-08-22T08:44:45.139Z,38.00
2023-08-22T08:47:12.618Z,37.80
2023-08-22T08:49:39.604Z,38.00
2023-08-22T08:52:09.204Z,38.40
2023-08-22T08:54:37.636Z,38.60
2023-08-22T08:57:05.633Z,38.70
2023-08-22T08:59:33.173Z,38.50
2023-08-22T09:02:04.089Z,38.10
2023-08-22T09:04:31.230Z,38.00
2023-08-22T09:06:58.243Z,38.20
2023-08-22T09:09:26.065Z,38.50
2023-08-22T09:11:53.347Z,38.80
2023-08-22T09:14:21.622Z,38.90
2023-08-22T09:16:49.993Z,39.30
2023-08-22T09:19:17.558Z,39.30
2023-08-22T09:22:04.596Z,38.40
2023-08-22T09:24:34.543Z,36.80
2023-08-22T09:27:07.216Z,36.00
2023-08-22T09:29:36.283Z,36.10
2023-08-22T09:32:03.409Z,36.00
2023-08-22T09:34:31.385Z,35.60
2023-08-22T09:36:58.705Z,34.90
2023-08-22T09:39:26.460Z,34.80
2023-08-22T09:41:58.386Z,34.80
2023-08-22T09:44:27.039Z,35.10
2023-08-22T09:46:57.049Z,35.50
2023-08-22T09:49:24.688Z,35.50
2023-08-22T09:51:54.533Z,35.80
2023-08-22T09:54:23.612Z,35.90
2023-08-22T09:56:52.079Z,36.20
2023-08-22T09:59:20.819Z,36.70
2023-08-22T10:01:49.759Z,36.80
2023-08-22T10:04:19.219Z,36.70
2023-08-22T10:06:50.825Z,37.00
2023-08-22T10:09:18.957Z,36.50
2023-08-22T10:11:51.304Z,36.20
2023-08-22T10:14:49.447Z,36.00
2023-08-22T10:17:16.754Z,35.70
2023-08-22T10:19:44.490Z,35.80
2023-08-22T10:22:13.707Z,35.90
2023-08-22T10:24:43.067Z,35.50
2023-08-22T10:27:13.884Z,35.40
2023-08-22T10:30:08.064Z,35.50
2023-08-22T10:32:35.031Z,35.40
2023-08-22T10:35:04.742Z,35.70
2023-08-22T10:37:31.758Z,35.70
2023-08-22T10:40:09.737Z,35.70
2023-08-22T10:42:37.656Z,35.90
2023-08-22T10:45:18.569Z,35.70
2023-08-22T10:47:50.095Z,35.70
2023-08-22T10:50:18.266Z,35.60
2023-08-22T10:52:45.843Z,35.50
2023-08-22T10:55:14.819Z,35.30
2023-08-22T10:57:45.624Z,35.10
2023-08-22T11:00:26.680Z,35.10
2023-08-22T11:03:01.018Z,35.10
2023-08-22T11:05:28.433Z,35.20
2023-08-22T11:07:55.715Z,35.30
2023-08-22T11:10:24.757Z,35.50
2023-08-22T11:12:55.631Z,35.30
2023-08-22T11:15:22.942Z,35.30
2023-08-22T11:17:52.118Z,35.10
2023-08-22T11:20:24.840Z,35.30
2023-08-22T11:22:52.295Z,35.50
2023-08-22T11:25:27.347Z,35.50
2023-08-22T11:27:55.069Z,35.50
2023-08-22T11:30:22.915Z,35.50
2023-08-22T11:32:50.958Z,35.30
2023-08-22T11:35:18.290Z,35.30
2023-08-22T11:37:46.226Z,35.50
2023-08-22T11:40:18.347Z,35.50
2023-08-22T11:42:49.469Z,35.60
2023-08-22T11:45:26.676Z,35.50
2023-08-22T11:47:55.416Z,35.60
2023-08-22T11:50:31.205Z,36.00
2023-08-22T11:53:18.494Z,36.10
2023-08-22T11:55:56.538Z,36.00
2023-08-22T11:58:23.682Z,36.30
2023-08-22T12:00:56.465Z,36.40
2023-08-22T12:03:23.678Z,36.20
2023-08-22T12:05:50.768Z,36.40
2023-08-22T12:08:20.284Z,36.80
2023-08-22T12:10:50.096Z,37.10
2023-08-22T12:13:20.249Z,37.10
2023-08-22T12:15:47.939Z,37.20
2023-08-22T12:18:15.917Z,37.10
2023-08-22T12:20:44.098Z,37.30
2023-08-22T12:23:14.826Z,37.40
2023-08-22T12:25:43.599Z,36.90
2023-08-22T12:28:12.003Z,36.30
2023-08-22T12:30:40.199Z,35.90
2023-08-22T12:33:09.691Z,35.30
2023-08-22T12:35:39.703Z,35.10
2023-08-22T12:38:07.528Z,35.60
2023-08-22T12:40:34.700Z,35.40
2023-08-22T12:43:01.803Z,35.50
2023-08-22T12:45:29.092Z,35.10
2023-08-22T12:47:56.237Z,35.00
2023-08-22T12:50:25.225Z,34.20
2023-08-22T12:52:52.202Z,33.70
2023-08-22T12:55:21.808Z,33.50
2023-08-22T12:57:49.339Z,33.60
2023-08-22T13:00:16.847Z,33.90
2023-08-22T13:02:45.149Z,34.50
2023-08-22T13:05:16.991Z,35.10
2023-08-22T13:07:45.355Z,35.40
2023-08-22T13:10:14.408Z,36.00
2023-08-22T13:12:41.811Z,36.30
2023-08-22T13:15:09.185Z,36.60
2023-08-22T13:17:36.561Z,36.70
2023-08-22T13:20:04.742Z,36.40
2023-08-22T13:22:31.768Z,36.10
2023-08-22T13:24:58.695Z,35.20
2023-08-22T13:27:25.820Z,34.50
2023-08-22T13:29:52.924Z,34.40
2023-08-22T13:32:19.883Z,34.60
2023-08-22T13:34:47.008Z,34.10
2023-08-22T13:37:14.100Z,33.50
2023-08-22T13:39:41.146Z,33.30
2023-08-22T13:42:08.337Z,33.60
2023-08-22T13:44:35.398Z,34.10
2023-08-22T13:47:02.427Z,34.90
2023-08-22T13:49:29.491Z,35.10
2023-08-22T13:51:56.535Z,35.50
2023-08-22T13:54:23.657Z,35.90
2023-08-22T13:56:50.812Z,36.30
2023-08-22T13:59:17.907Z,36.60
2023-08-22T14:01:46.829Z,36.90
2023-08-22T14:04:15.007Z,36.60
2023-08-22T14:06:42.339Z,36.30
2023-08-22T14:09:20.010Z,36.30
2023-08-22T14:11:52.916Z,36.30
2023-08-22T14:14:20.002Z,35.80
2023-08-22T14:16:47.128Z,35.60
2023-08-22T14:19:14.490Z,35.50
2023-08-22T14:21:47.559Z,35.70
2023-08-22T14:24:18.740Z,35.60
2023-08-22T14:26:45.871Z,35.90
2023-08-22T14:29:13.047Z,36.00
2023-08-22T14:31:40.242Z,36.00
2023-08-22T14:34:08.625Z,35.70
2023-08-22T14:36:36.082Z,35.70
2023-08-22T14:39:04.652Z,35.30
2023-08-22T14:41:32.378Z,35.20
2023-08-22T14:43:59.727Z,34.60
2023-08-22T14:46:27.010Z,34.20
2023-08-22T14:48:56.874Z,34.20
2023-08-22T14:51:23.874Z,34.30
2023-08-22T14:53:50.973Z,34.50
2023-08-22T14:56:18.056Z,34.80
2023-08-22T14:58:48.894Z,34.90
2023-08-22T15:01:19.169Z,35.10
2023-08-22T15:03:46.845Z,35.10
2023-08-22T15:06:13.919Z,34.90
2023-08-22T15:08:42.172Z,34.60
2023-08-22T15:11:09.620Z,34.20
2023-08-22T15:13:36.931Z,34.20
2023-08-22T15:16:04.647Z,34.40
2023-08-22T15:18:31.826Z,34.50
2023-08-22T15:21:02.680Z,34.90
2023-08-22T15:23:29.930Z,34.70
2023-08-22T15:25:58.164Z,34.50
2023-08-22T15:28:26.380Z,34.10
2023-08-22T15:31:00.521Z,33.70
2023-08-22T15:33:29.007Z,33.60
2023-08-22T15:36:00.434Z,33.60
2023-08-22T15:38:32.943Z,33.70
2023-08-22T15:41:01.183Z,34.00
2023-08-22T15:43:28.277Z,34.70
2023-08-22T15:45:55.303Z,35.10
2023-08-22T15:48:22.439Z,35.30
2023-08-22T15:50:50.635Z,35.40
2023-08-22T15:53:17.690Z,35.20
2023-08-22T15:55:46.050Z,35.10
2023-08-22T15:58:13.199Z,35.10
2023-08-22T16:00:43.355Z,35.00
2023-08-22T16:03:10.829Z,34.90
2023-08-22T16:05:37.924Z,34.50
2023-08-22T16:08:05.248Z,34.20
2023-08-22T16:10:32.341Z,34.10
2023-08-22T16:12:59.320Z,34.10
2023-08-22T16:15:27.896Z,34.10
2023-08-22T16:17:55.121Z,33.90
2023-08-22T16:20:22.426Z,34.20
2023-08-22T16:22:49.718Z,34.00
2023-08-22T16:25:16.766Z,34.00
2023-08-22T16:27:43.805Z,33.90
2023-08-22T16:30:11.097Z,33.90
2023-08-22T16:32:39.737Z,34.00
2023-08-22T16:35:07.129Z,34.10
2023-08-22T16:37:34.246Z,34.00
2023-08-22T16:40:01.237Z,34.10
2023-08-22T16:42:29.581Z,34.00
2023-08-22T16:44:56.534Z,33.80
2023-08-22T16:47:23.610Z,33.80
2023-08-22T16:49:50.559Z,33.90
2023-08-22T16:52:17.703Z,33.50
2023-08-22T16:54:45.313Z,32.80
2023-08-22T16:57:12.332Z,32.30
2023-08-22T16:59:39.368Z,31.60
2023-08-22T17:02:06.928Z,31.00
2023-08-22T17:04:33.918Z,30.60
2023-08-22T17:07:02.894Z,30.20
2023-08-22T17:09:32.492Z,29.90
2023-08-22T17:12:00.220Z,29.60
2023-08-22T17:14:29.465Z,29.40
2023-08-22T17:16:56.429Z,29.20
2023-08-22T17:19:23.399Z,29.00
2023-08-22T17:21:50.538Z,28.90
2023-08-22T17:24:17.548Z,28.70
2023-08-22T17:26:50.938Z,28.70
2023-08-22T17:29:18.363Z,28.60
2023-08-22T17:31:45.718Z,28.40
2023-08-22T17:34:12.733Z,28.40
2023-08-22T17:36:39.818Z,28.20
2023-08-22T17:39:08.960Z,28.20
2023-08-22T17:41:36.438Z,28.10
2023-08-22T17:44:03.598Z,28.00
2023-08-22T17:46:31.067Z,27.80
2023-08-22T17:48:58.137Z,27.80
2023-08-22T17:51:25.183Z,27.70
2023-08-22T17:53:54.058Z,27.50
2023-08-22T17:56:21.182Z,27.40
2023-08-22T17:58:48.238Z,27.30
2023-08-22T18:01:15.412Z,27.20
2023-08-22T18:03:42.609Z,27.00
2023-08-22T18:06:09.726Z,26.90
2023-08-22T18:08:38.091Z,26.80
2023-08-22T18:11:05.290Z,26.70
2023-08-22T18:13:32.409Z,26.50
2023-08-22T18:16:09.792Z,26.40
2023-08-22T18:18:40.125Z,26.40
2023-08-22T18:21:13.154Z,26.20
2023-08-22T18:23:41.453Z,26.10
2023-08-22T18:26:10.627Z,26.00
2023-08-22T18:28:39.171Z,25.90
2023-08-22T18:31:19.611Z,25.80
2023-08-22T18:33:46.719Z,25.70
2023-08-22T18:36:22.152Z,25.60
2023-08-22T18:38:49.190Z,25.50
2023-08-22T18:41:16.627Z,25.40
2023-08-22T18:43:49.784Z,25.30
2023-08-22T18:46:17.576Z,25.20
2023-08-22T18:48:45.366Z,25.20
2023-08-22T18:51:12.641Z,25.10
2023-08-22T18:53:40.004Z,25.00
2023-08-22T18:56:09.879Z,25.00
2023-08-22T18:58:38.472Z,24.90
2023-08-22T19:01:06.503Z,24.80
2023-08-22T19:03:33.632Z,24.80
2023-08-22T19:06:02.043Z,24.70
2023-08-22T19:08:29.042Z,24.70
2023-08-22T19:10:56.021Z,24.70
2023-08-22T19:13:23.056Z,24.60
2023-08-22T19:15:50.334Z,24.60
2023-08-22T19:18:17.507Z,24.60
2023-08-22T19:20:48.951Z,24.50
2023-08-22T19:23:16.732Z,24.40
2023-08-22T19:25:43.986Z,24.40
2023-08-22T19:28:12.201Z,24.30
2023-08-22T19:30:39.286Z,24.20
2023-08-22T19:35:40.238Z,24.00
2023-08-22T19:38:08.030Z,23.90
2023-08-22T19:40:35.119Z,23.90
2023-08-22T19:43:02.438Z,23.80
2023-08-22T19:45:32.211Z,23.70
2023-08-22T19:47:59.667Z,23.70
2023-08-22T19:50:27.207Z,23.60
2023-08-22T19:52:54.409Z,23.60
2023-08-22T19:55:21.587Z,23.50
2023-08-22T19:57:50.048Z,23.50
2023-08-22T20:00:18.258Z,23.30
2023-08-22T20:02:49.111Z,23.20
2023-08-22T20:05:16.924Z,23.20
2023-08-22T20:07:45.191Z,23.10
2023-08-22T20:10:12.487Z,23.00
2023-08-22T20:12:39.633Z,22.90
2023-08-22T20:15:07.452Z,22.80
2023-08-22T20:17:34.752Z,22.80
2023-08-22T20:20:01.977Z,22.80
2023-08-22T20:22:29.195Z,22.80
2023-08-22T20:24:56.219Z,22.70
2023-08-22T20:27:24.289Z,22.60
2023-08-22T20:29:51.981Z,22.60
2023-08-22T20:32:19.288Z,22.50
2023-08-22T20:34:49.279Z,22.50
2023-08-22T20:37:16.630Z,22.40
2023-08-22T20:39:43.674Z,22.40
2023-08-22T20:42:10.724Z,22.40
2023-08-22T20:44:37.860Z,22.40
2023-08-22T20:47:05.046Z,22.30
2023-08-22T20:49:32.158Z,22.40
2023-08-22T20:51:59.224Z,22.40
2023-08-22T20:54:28.605Z,22.50
2023-08-22T20:56:56.212Z,22.50
2023-08-22T20:59:23.372Z,22.50
2023-08-22T21:01:50.445Z,22.50
2023-08-22T21:04:17.449Z,22.50
2023-08-22T21:06:44.602Z,22.60
2023-08-22T21:09:12.785Z,22.50
2023-08-22T21:11:39.805Z,22.60
2023-08-22T21:14:06.852Z,22.60
2023-08-22T21:16:34.346Z,22.60
2023-08-22T21:19:01.527Z,22.60
2023-08-22T21:21:28.511Z,22.50
2023-08-22T21:23:55.525Z,22.50
2023-08-22T21:26:23.891Z,22.50
2023-08-22T21:28:51.148Z,22.50
2023-08-22T21:31:18.300Z,22.50
2023-08-22T21:33:45.406Z,22.50
2023-08-22T21:36:14.385Z,22.60
2023-08-22T21:38:42.484Z,22.60
2023-08-22T21:41:09.525Z,22.60
2023-08-22T21:43:36.577Z,22.60
2023-08-22T21:46:03.710Z,22.60
2023-08-22T21:48:30.778Z,22.70
2023-08-22T21:50:57.791Z,22.70
2023-08-22T21:53:24.809Z,22.60
2023-08-22T21:55:51.830Z,22.60
2023-08-22T21:58:19.214Z,22.60
2023-08-22T22:00:46.284Z,22.60
2023-08-22T22:03:14.873Z,22.60
2023-08-22T22:05:42.337Z,22.60
2023-08-22T22:08:09.278Z,22.60
2023-08-22T22:10:36.658Z,22.60
2023-08-22T22:13:03.799Z,22.50
2023-08-22T22:15:30.875Z,22.50
2023-08-22T22:17:57.958Z,22.50
2023-08-22T22:20:25.140Z,22.40
2023-08-22T22:22:52.167Z,22.40
2023-08-22T22:25:19.467Z,22.40
2023-08-22T22:27:46.728Z,22.40
2023-08-22T22:30:14.147Z,22.40
2023-08-22T22:32:41.255Z,22.40
2023-08-22T22:35:08.727Z,22.40
2023-08-22T22:37:35.745Z,22.40
2023-08-22T22:40:02.803Z,22.40
2023-08-22T22:42:29.864Z,22.40
2023-08-22T22:44:57.962Z,22.40
2023-08-22T22:47:26.350Z,22.50
2023-08-22T22:49:53.716Z,22.50
2023-08-22T22:52:20.786Z,22.50
2023-08-22T22:54:47.913Z,22.50
2023-08-22T22:57:16.030Z,22.50
2023-08-22T22:59:43.179Z,22.50
2023-08-22T23:02:13.053Z,22.50
2023-08-22T23:04:40.102Z,22.50
2023-08-22T23:07:07.065Z,22.40
2023-08-22T23:09:34.118Z,22.40
2023-08-22T23:12:11.546Z,22.30
2023-08-22T23:14:39.680Z,22.20
2023-08-22T23:17:09.252Z,22.20
2023-08-22T23:19:36.242Z,22.20
2023-08-22T23:22:04.399Z,22.20
2023-08-22T23:24:32.441Z,22.10
2023-08-22T23:27:01.768Z,22.10
2023-08-22T23:29:30.335Z,22.10
2023-08-22T23:31:58.892Z,22.10
2023-08-22T23:34:26.162Z,22.00
2023-08-22T23:36:53.122Z,21.90
2023-08-22T23:39:20.134Z,21.80
2023-08-22T23:41:47.253Z,21.70
2023-08-22T23:44:14.694Z,21.60
2023-08-22T23:46:42.177Z,21.60
2023-08-22T23:49:09.573Z,21.40
2023-08-22T23:51:36.549Z,21.40
2023-08-22T23:54:04.766Z,21.30
2023-08-22T23:56:31.982Z,21.20
2023-08-22T23:58:59.008Z,21.10
